Time;durP1;ratioP1;P1;durP2;ratioP2;P2;SDS_P1;SDS_P2;PMS_P1;PMS_P2;Temp;Humidity;BMP_temperature;BMP_pressure;BME280_temperature;BME280_humidity;BME280_pressure;Samples;Min_cycle;Max_cycle;Signal;HPM_P1;HPM_P2
2020/12/14 00:02:08;;;;;;;7.57;3.70;;;;;;;11.00;54.00;100764.09;5070273;28;20116;-69
2020/12/14 00:04:34;;;;;;;11.13;5.32;;;;;;;11.05;54.01;100756.25;5069486;28;20024;-69
2020/12/14 00:07:00;;;;;;;9.50;4.97;;;;;;;11.25;53.16;100756.81;5069954;28;20116;-69
2020/12/14 00:09:25;;;;;;;8.27;4.47;;;;;;;11.20;53.35;100745.69;5070360;28;20040;-70
2020/12/14 00:11:51;;;;;;;8.00;5.15;;;;;;;10.83;54.34;100747.94;5086819;28;20029;-70
2020/12/14 00:14:17;;;;;;;11.48;3.95;;;;;;;11.16;53.33;100754.34;5071641;28;20068;-69
2020/12/14 00:16:42;;;;;;;10.73;3.78;;;;;;;11.17;53.46;100750.91;5068232;28;20105;-69
2020/12/14 00:19:08;;;;;;;9.73;4.70;;;;;;;11.15;53.20;100739.72;5069467;28;20036;-69
2020/12/14 00:21:34;;;;;;;8.55;4.28;;;;;;;11.02;53.67;100739.91;5071195;28;20059;-69
2020/12/14 00:23:59;;;;;;;7.97;3.92;;;;;;;11.19;53.14;100738.81;5070195;28;20044;-69
2020/12/14 00:26:25;;;;;;;8.50;4.50;;;;;;;10.92;53.81;100742.66;5069683;28;20078;-70
2020/12/14 00:28:50;;;;;;;6.63;3.92;;;;;;;11.08;53.21;100735.53;5066182;28;20036;-70
2020/12/14 00:31:17;;;;;;;6.35;3.78;;;;;;;11.17;53.01;100725.88;5067633;28;20032;-69
2020/12/14 00:33:43;;;;;;;9.73;3.80;;;;;;;11.17;53.07;100727.63;5067835;28;20032;-69
2020/12/14 00:36:12;;;;;;;8.63;3.25;;;;;;;10.97;53.74;100723.59;5067851;28;20041;-70
2020/12/14 00:38:39;;;;;;;4.13;2.78;;;;;;;11.20;52.96;100727.56;5069089;28;20105;-69
2020/12/14 00:41:06;;;;;;;14.18;3.35;;;;;;;11.20;52.95;100717.22;5070981;28;20029;-70
2020/12/14 00:43:32;;;;;;;7.22;3.47;;;;;;;10.92;53.43;100717.66;5086366;28;20032;-70
2020/12/14 00:45:58;;;;;;;5.45;3.13;;;;;;;11.04;52.99;100710.59;5067987;28;20105;-69
2020/12/14 00:48:23;;;;;;;4.20;2.75;;;;;;;11.06;52.78;100708.84;5057142;28;20036;-69
2020/12/14 00:50:49;;;;;;;8.65;3.28;;;;;;;11.05;53.10;100717.47;5086173;28;20455;-71
2020/12/14 00:53:14;;;;;;;5.47;2.88;;;;;;;11.17;52.51;100709.53;5070777;28;20056;-71
2020/12/14 00:55:40;;;;;;;7.13;2.92;;;;;;;11.39;51.91;100713.47;5084749;28;20036;-69
2020/12/14 00:58:06;;;;;;;9.07;3.85;;;;;;;10.74;53.72;100710.19;5069315;28;20131;-72
2020/12/14 01:00:32;;;;;;;6.55;3.13;;;;;;;11.34;52.00;100710.09;5068861;28;20063;-71
2020/12/14 01:02:57;;;;;;;10.05;3.28;;;;;;;11.38;51.68;100716.91;5069165;28;20060;-69
2020/12/14 01:05:23;;;;;;;6.07;2.30;;;;;;;11.10;51.93;100711.34;5085208;28;20067;-71
2020/12/14 01:07:48;;;;;;;6.53;2.22;;;;;;;11.29;51.98;100724.84;5060788;28;20024;-68
2020/12/14 01:10:14;;;;;;;5.93;2.55;;;;;;;11.37;51.57;100719.56;5070639;28;20474;-69
2020/12/14 01:12:39;;;;;;;7.75;2.55;;;;;;;11.35;51.56;100713.53;5068309;28;20075;-70
2020/12/14 01:15:05;;;;;;;4.55;2.05;;;;;;;11.08;51.93;100707.09;5067879;28;20545;-69
2020/12/14 01:17:31;;;;;;;5.35;1.92;;;;;;;11.02;52.28;100698.53;5067632;28;20059;-70
2020/12/14 01:19:57;;;;;;;6.22;1.83;;;;;;;10.89;52.45;100696.16;5064975;28;20409;-69
2020/12/14 01:22:22;;;;;;;4.07;1.95;;;;;;;11.28;51.68;100705.03;5067583;28;20033;-70
2020/12/14 01:24:48;;;;;;;7.43;2.60;;;;;;;10.83;52.15;100701.41;5064254;28;20116;-70
2020/12/14 01:27:13;;;;;;;3.97;2.15;;;;;;;11.36;51.55;100708.34;5049696;28;20483;-70
2020/12/14 01:29:39;;;;;;;6.55;1.90;;;;;;;11.18;51.64;100700.88;5067487;28;20182;-70
2020/12/14 01:32:04;;;;;;;3.38;1.90;;;;;;;11.17;51.30;100704.34;5068180;28;20039;-70
2020/12/14 01:34:30;;;;;;;3.25;1.75;;;;;;;11.17;51.53;100692.25;5062971;28;21014;-70
2020/12/14 01:36:55;;;;;;;4.13;1.70;;;;;;;11.53;50.26;100692.50;5067573;28;20402;-71
2020/12/14 01:39:20;;;;;;;4.20;1.75;;;;;;;11.07;51.65;100682.06;5067368;28;20466;-70
2020/12/14 01:41:46;;;;;;;6.28;2.63;;;;;;;11.17;51.23;100686.25;5083029;28;20344;-70
2020/12/14 01:44:11;;;;;;;3.72;2.50;;;;;;;11.32;50.70;100685.09;5066552;28;20039;-70
2020/12/14 01:46:40;;;;;;;5.00;2.10;;;;;;;11.31;51.01;100679.09;5067484;28;20445;-69
2020/12/14 01:49:07;;;;;;;5.38;1.98;;;;;;;11.11;51.20;100684.59;5068258;28;20044;-69
2020/12/14 01:51:32;;;;;;;6.50;2.30;;;;;;;11.35;50.62;100677.31;5067552;28;20032;-69
2020/12/14 01:53:59;;;;;;;4.35;2.10;;;;;;;11.36;50.53;100677.28;5067164;28;20028;-69
2020/12/14 01:56:26;;;;;;;6.47;2.20;;;;;;;10.91;51.08;100666.81;5066565;28;20302;-70
2020/12/14 01:58:52;;;;;;;7.75;1.73;;;;;;;11.18;50.47;100675.00;5066403;28;20032;-69
2020/12/14 02:01:17;;;;;;;4.07;1.55;;;;;;;11.36;50.53;100682.47;5066654;28;20032;-69
2020/12/14 02:03:43;;;;;;;7.45;2.08;;;;;;;11.20;50.56;100686.19;5069857;28;20044;-70
2020/12/14 02:06:08;;;;;;;4.15;1.70;;;;;;;11.08;50.91;100681.22;5083030;28;20040;-71
2020/12/14 02:08:34;;;;;;;13.38;2.33;;;;;;;11.15;50.36;100682.81;5068827;28;20036;-70
2020/12/14 02:11:00;;;;;;;6.35;1.30;;;;;;;10.75;51.54;100673.94;5083633;28;20040;-69
2020/12/14 02:13:27;;;;;;;5.32;2.10;;;;;;;11.56;49.96;100676.91;5065078;28;20401;-70
2020/12/14 02:15:53;;;;;;;3.42;1.63;;;;;;;10.93;50.56;100677.13;5065214;28;20097;-71
2020/12/14 02:18:18;;;;;;;7.20;1.83;;;;;;;11.22;50.20;100674.06;5069950;28;20119;-70
2020/12/14 02:20:44;;;;;;;4.13;1.35;;;;;;;11.55;49.72;100679.56;5068436;28;20044;-71
2020/12/14 02:23:09;;;;;;;2.63;1.73;;;;;;;11.22;50.38;100671.47;5068960;28;20060;-70
2020/12/14 02:25:34;;;;;;;3.65;1.50;;;;;;;11.54;50.02;100670.06;5051544;28;20121;-70
2020/12/14 02:28:00;;;;;;;5.47;1.40;;;;;;;11.45;50.10;100658.13;5068486;28;20718;-70
2020/12/14 02:30:26;;;;;;;5.90;2.03;;;;;;;11.23;50.15;100655.09;5069253;28;20050;-70
2020/12/14 02:32:51;;;;;;;5.28;2.50;;;;;;;11.47;50.27;100650.34;5067991;28;20376;-70
2020/12/14 02:35:16;;;;;;;7.20;1.65;;;;;;;11.47;49.95;100647.78;5068817;28;20040;-69
2020/12/14 02:37:42;;;;;;;2.45;1.05;;;;;;;11.55;50.13;100635.56;5085447;28;20151;-69
2020/12/14 02:40:07;;;;;;;4.95;2.00;;;;;;;11.46;49.92;100640.91;5085773;28;21055;-70
2020/12/14 02:42:33;;;;;;;2.75;1.67;;;;;;;11.74;49.59;100646.41;5085069;28;20060;-70
2020/12/14 02:44:59;;;;;;;4.43;1.73;;;;;;;11.59;49.53;100637.19;5070171;28;20797;-69
2020/12/14 02:47:24;;;;;;;4.30;1.73;;;;;;;11.07;51.04;100635.53;5067580;28;20108;-69
2020/12/14 02:49:50;;;;;;;3.25;1.45;;;;;;;11.30;50.31;100638.59;5067806;28;20041;-70
2020/12/14 02:52:15;;;;;;;2.72;1.25;;;;;;;11.56;49.74;100634.66;5067553;28;20140;-70
2020/12/14 02:54:43;;;;;;;2.63;1.42;;;;;;;11.56;49.81;100622.56;5066894;28;20131;-70
2020/12/14 02:57:10;;;;;;;4.53;1.45;;;;;;;11.33;50.35;100629.91;5068339;28;20028;-69
2020/12/14 02:59:36;;;;;;;3.97;1.83;;;;;;;11.53;49.96;100619.19;5082658;28;20040;-70
2020/12/14 03:02:02;;;;;;;4.85;2.33;;;;;;;11.32;50.51;100618.72;5067359;28;20028;-70
2020/12/14 03:04:27;;;;;;;4.95;1.83;;;;;;;11.35;50.49;100616.06;5084129;28;20040;-70
2020/12/14 03:06:53;;;;;;;3.47;1.20;;;;;;;11.27;50.62;100630.84;5065991;28;20114;-70
2020/12/14 03:09:20;;;;;;;2.63;1.52;;;;;;;11.40;50.40;100631.50;5067947;28;20683;-70
2020/12/14 03:11:47;;;;;;;4.88;1.73;;;;;;;11.22;51.04;100622.34;5067997;28;20531;-69
2020/12/14 03:14:13;;;;;;;2.95;1.48;;;;;;;11.43;50.47;100614.19;5066522;28;20028;-70
2020/12/14 03:16:42;;;;;;;6.75;2.20;;;;;;;11.27;50.87;100619.66;5066513;28;20052;-69
2020/12/14 03:19:08;;;;;;;3.42;1.25;;;;;;;11.49;50.40;100617.53;5083085;28;20040;-70
2020/12/14 03:21:33;;;;;;;8.20;2.28;;;;;;;11.41;50.38;100602.16;5067679;28;20044;-70
2020/12/14 03:23:59;;;;;;;5.60;2.00;;;;;;;11.16;51.28;100627.59;5082225;28;20036;-69
2020/12/14 03:26:25;;;;;;;8.95;2.15;;;;;;;11.56;50.32;100621.72;5066516;28;20044;-69
2020/12/14 03:28:52;;;;;;;4.57;1.13;;;;;;;11.56;50.40;100624.31;5066975;28;20048;-69
2020/12/14 03:31:17;;;;;;;2.25;1.05;;;;;;;11.55;50.47;100614.84;5068036;28;20712;-70
2020/12/14 03:33:43;;;;;;;5.45;1.48;;;;;;;11.09;51.67;100616.50;5067291;28;20310;-70
2020/12/14 03:36:08;;;;;;;4.35;1.45;;;;;;;11.47;51.01;100619.31;5067909;28;20068;-70
2020/12/14 03:38:34;;;;;;;2.40;1.58;;;;;;;11.21;51.81;100618.91;5066344;28;20063;-70
2020/12/14 03:41:06;;;;;;;2.80;1.42;;;;;;;11.38;51.84;100616.00;5068263;28;20028;-70
2020/12/14 03:43:32;;;;;;;2.65;1.08;;;;;;;11.22;52.16;100605.06;5072066;28;20091;-69
2020/12/14 03:45:58;;;;;;;7.03;1.50;;;;;;;11.54;51.38;100580.34;5067230;28;20028;-70
2020/12/14 03:48:24;;;;;;;2.42;1.38;;;;;;;11.49;51.81;100589.06;5066567;28;20062;-70
2020/12/14 03:50:49;;;;;;;4.85;1.60;;;;;;;11.42;52.05;100596.94;5065951;28;20048;-70
2020/12/14 03:53:15;;;;;;;8.07;2.08;;;;;;;11.29;52.44;100598.06;5068753;28;20036;-68
2020/12/14 03:55:40;;;;;;;6.13;1.15;;;;;;;10.94;53.31;100591.78;5066475;28;20023;-69
2020/12/14 03:58:07;;;;;;;5.63;1.58;;;;;;;11.46;51.88;100583.97;5067139;28;20139;-69
2020/12/14 04:00:33;;;;;;;3.08;1.23;;;;;;;11.45;52.21;100590.00;5066899;28;20102;-69
2020/12/14 04:03:01;;;;;;;5.88;1.38;;;;;;;11.21;52.60;100594.78;5051393;28;20033;-70
2020/12/14 04:05:26;;;;;;;4.85;1.20;;;;;;;11.39;52.23;100598.75;5070068;28;20043;-69
2020/12/14 04:07:52;;;;;;;3.60;1.90;;;;;;;11.13;53.04;100599.22;5067901;28;20037;-69
2020/12/14 04:10:17;;;;;;;3.63;1.48;;;;;;;11.56;51.72;100601.00;5071175;28;20127;-71
2020/12/14 04:12:43;;;;;;;4.70;1.25;;;;;;;11.51;51.69;100608.00;5086699;28;20040;-70
2020/12/14 04:15:08;;;;;;;3.58;1.17;;;;;;;11.75;50.85;100597.19;5071023;28;20036;-69
2020/12/14 04:17:34;;;;;;;5.47;1.52;;;;;;;11.72;51.35;100597.25;5071595;28;20086;-70
2020/12/14 04:19:59;;;;;;;3.65;1.08;;;;;;;11.38;51.86;100600.47;5070808;28;20081;-71
2020/12/14 04:22:25;;;;;;;3.67;1.27;;;;;;;11.50;51.73;100596.81;5071582;28;20644;-70
2020/12/14 04:24:50;;;;;;;1.75;0.90;;;;;;;11.75;51.00;100607.53;5068586;28;20028;-70
2020/12/14 04:27:16;;;;;;;2.53;1.55;;;;;;;11.51;51.49;100602.84;5071475;28;20047;-69
2020/12/14 04:29:41;;;;;;;2.90;1.25;;;;;;;11.77;51.23;100589.38;5058940;28;20036;-70
2020/12/14 04:32:07;;;;;;;3.45;1.77;;;;;;;11.69;51.33;100592.13;5050204;28;20513;-70
2020/12/14 04:34:32;;;;;;;5.22;1.25;;;;;;;11.31;52.28;100585.09;5068282;28;20025;-69
2020/12/14 04:36:58;;;;;;;3.70;1.58;;;;;;;11.54;51.93;100590.72;5066062;28;20056;-70
2020/12/14 04:39:23;;;;;;;4.95;1.92;;;;;;;11.46;51.88;100583.97;5068688;28;20032;-72
2020/12/14 04:41:54;;;;;;;5.40;1.33;;;;;;;11.46;52.05;100582.22;5072114;28;20085;-69
2020/12/14 04:44:20;;;;;;;7.30;0.93;;;;;;;11.21;52.20;100594.78;5068857;28;20048;-72
2020/12/14 04:46:48;;;;;;;3.17;1.33;;;;;;;11.38;52.04;100587.53;5068434;28;20032;-70
2020/12/14 04:49:14;;;;;;;6.47;1.30;;;;;;;11.74;51.16;100579.06;5066711;28;20505;-70
2020/12/14 04:51:39;;;;;;;1.95;1.10;;;;;;;11.68;50.87;100561.94;5050568;28;20048;-70
2020/12/14 04:54:05;;;;;;;3.75;1.02;;;;;;;11.64;51.28;100565.47;5067537;28;20037;-69
2020/12/14 04:56:38;;;;;;;1.63;0.85;;;;;;;11.81;50.46;100554.75;5066567;28;20040;-70
2020/12/14 04:59:04;;;;;;;1.83;1.20;;;;;;;11.63;50.74;100553.41;5066654;28;20029;-69
2020/12/14 05:01:29;;;;;;;3.45;1.45;;;;;;;11.59;50.65;100537.09;5084469;28;20514;-69
2020/12/14 05:03:55;;;;;;;3.10;1.52;;;;;;;11.62;50.44;100541.34;5064606;28;20165;-69
2020/12/14 05:06:20;;;;;;;5.35;1.23;;;;;;;11.85;50.14;100551.22;5068402;28;20086;-70
2020/12/14 05:08:46;;;;;;;2.67;1.63;;;;;;;11.40;51.16;100541.78;5068181;28;20031;-70
2020/12/14 05:11:11;;;;;;;4.78;1.10;;;;;;;11.32;51.29;100525.56;5067771;28;20033;-69
2020/12/14 05:13:37;;;;;;;3.17;1.38;;;;;;;11.63;51.03;100519.75;5065147;28;20032;-69
2020/12/14 05:16:03;;;;;;;3.50;1.20;;;;;;;11.68;50.58;100510.16;5065926;28;20494;-70
2020/12/14 05:18:29;;;;;;;2.70;0.95;;;;;;;11.38;51.15;100514.22;5066914;28;20102;-70
2020/12/14 05:20:56;;;;;;;3.42;1.42;;;;;;;11.23;51.26;100505.06;5068289;28;20472;-70
2020/12/14 05:23:21;;;;;;;5.28;0.85;;;;;;;11.25;51.33;100503.25;5081724;28;20406;-69
2020/12/14 05:25:47;;;;;;;3.55;1.08;;;;;;;11.64;50.83;100537.00;5066662;28;20028;-70
2020/12/14 05:28:16;;;;;;;2.90;1.10;;;;;;;11.34;51.78;100557.44;5083192;28;20100;-70
2020/12/14 05:30:51;;;;;;;2.22;1.20;;;;;;;10.81;53.58;100564.44;5067478;28;20426;-70
2020/12/14 05:33:18;;;;;;;3.95;1.05;;;;;;;11.43;52.23;100565.03;5067427;28;20500;-69
2020/12/14 05:35:45;;;;;;;1.83;0.80;;;;;;;11.33;52.55;100540.19;5066631;28;20032;-69
2020/12/14 05:38:13;;;;;;;3.88;0.70;;;;;;;11.16;53.18;100530.19;5065920;28;20039;-68
2020/12/14 05:40:39;;;;;;;3.80;1.02;;;;;;;10.80;53.74;100535.09;5070240;28;20132;-69
2020/12/14 05:43:10;;;;;;;2.90;0.95;;;;;;;10.97;53.46;100532.25;5067052;28;20189;-70
2020/12/14 05:45:35;;;;;;;2.00;1.10;;;;;;;11.14;52.85;100536.25;5082811;28;20039;-70
2020/12/14 05:48:01;;;;;;;4.13;0.88;;;;;;;10.77;53.73;100542.94;5065553;28;20099;-69
2020/12/14 05:50:27;;;;;;;3.63;1.02;;;;;;;11.37;52.20;100541.84;5067382;28;20036;-69
2020/12/14 05:52:54;;;;;;;2.25;0.95;;;;;;;11.05;53.01;100539.00;5066922;28;20029;-70
2020/12/14 05:55:23;;;;;;;3.78;1.10;;;;;;;11.12;53.22;100538.88;5065333;28;20924;-70
2020/12/14 05:57:50;;;;;;;5.53;1.58;;;;;;;10.88;53.85;100535.00;5066406;28;20032;-68
2020/12/14 06:00:17;;;;;;;3.10;1.10;;;;;;;11.20;53.43;100541.31;5067994;28;20028;-70
2020/12/14 06:02:43;;;;;;;3.22;0.88;;;;;;;11.25;53.26;100534.31;5066508;28;20509;-70
2020/12/14 06:05:09;;;;;;;2.60;0.77;;;;;;;11.31;53.23;100534.19;5068419;28;20037;-69
2020/12/14 06:07:37;;;;;;;3.00;0.82;;;;;;;10.77;55.04;100526.56;5068506;28;20028;-69
2020/12/14 06:10:05;;;;;;;2.63;0.82;;;;;;;10.88;54.64;100532.41;5067953;28;20078;-70
2020/12/14 06:12:32;;;;;;;5.40;1.15;;;;;;;10.47;55.06;100528.81;5067430;28;20137;-71
2020/12/14 06:15:06;;;;;;;2.92;0.60;;;;;;;11.27;53.68;100527.38;5066795;28;20088;-69
2020/12/14 06:17:32;;;;;;;2.08;0.90;;;;;;;11.35;53.47;100529.81;5068080;28;20041;-69
2020/12/14 06:20:05;;;;;;;5.93;1.00;;;;;;;10.98;54.47;100533.97;5067724;28;20032;-69
2020/12/14 06:22:32;;;;;;;5.88;0.75;;;;;;;11.14;54.25;100526.78;5067850;28;20103;-70
2020/12/14 06:24:59;;;;;;;6.00;1.00;;;;;;;10.96;54.95;100535.72;5065530;28;20398;-69
2020/12/14 06:27:29;;;;;;;2.85;1.05;;;;;;;11.24;54.65;100524.84;5066425;28;20086;-69
2020/12/14 06:29:55;;;;;;;5.10;1.00;;;;;;;10.85;55.75;100532.47;5067882;28;20025;-69
2020/12/14 06:32:38;;;;;;;3.08;0.73;;;;;;;10.88;55.82;100519.47;5066997;28;20528;-71
2020/12/14 06:35:41;;;;;;;2.70;1.48;;;;;;;11.17;54.70;100515.50;5064966;28;20337;-71
2020/12/14 06:38:06;;;;;;;;;;;;;;;11.02;55.13;100517.47;5085968;28;20174;-69
2020/12/14 06:40:58;;;;;;;3.70;1.05;;;;;;;10.86;55.88;100531.59;5085218;28;19948;-72
2020/12/14 06:43:34;;;;;;;4.38;0.55;;;;;;;10.88;56.11;100529.81;5081471;28;20044;-70
2020/12/14 06:46:03;;;;;;;3.63;1.02;;;;;;;10.69;56.92;100531.00;5064940;28;20040;-71
2020/12/14 06:48:41;;;;;;;5.85;1.13;;;;;;;10.76;56.99;100523.16;5066768;28;20127;-70
2020/12/14 06:51:08;;;;;;;2.00;0.47;;;;;;;10.33;58.09;100521.25;5068289;28;20085;-70
2020/12/14 06:53:44;;;;;;;6.05;1.80;;;;;;;11.00;56.16;100514.06;5066353;28;20154;-70
2020/12/14 06:56:14;;;;;;;3.58;1.10;;;;;;;11.15;55.87;100517.28;5065848;28;20398;-71
2020/12/14 06:58:43;;;;;;;4.28;1.00;;;;;;;11.09;55.70;100522.56;5066952;28;20097;-71
2020/12/14 07:01:35;;;;;;;7.10;1.33;;;;;;;10.71;57.03;100517.19;5083008;28;20387;-70
2020/12/14 07:04:24;;;;;;;2.97;0.80;;;;;;;10.72;57.38;100523.22;5065190;28;20041;-69
2020/12/14 07:06:49;;;;;;;2.45;0.93;;;;;;;10.98;56.32;100513.28;5065395;28;20508;-69
2020/12/14 07:09:29;;;;;;;5.30;1.30;;;;;;;10.72;57.26;100524.06;5083131;28;20104;-69
2020/12/14 07:12:15;;;;;;;5.43;0.90;;;;;;;11.20;55.74;100530.97;5065593;28;20036;-69
2020/12/14 07:14:48;;;;;;;5.07;1.35;;;;;;;11.20;55.97;100524.03;5066028;28;20055;-68
2020/12/14 07:17:18;;;;;;;3.30;1.30;;;;;;;10.79;57.51;100522.22;5065481;28;20056;-69
2020/12/14 07:19:47;;;;;;;3.10;1.13;;;;;;;10.61;58.44;100518.22;5063989;28;20040;-70
2020/12/14 07:22:49;;;;;;;3.83;1.10;;;;;;;10.73;58.18;100535.25;5053783;28;20028;-70
2020/12/14 07:25:24;;;;;;;;;;;;;;;10.97;57.96;100532.25;5033332;28;20056;-70
2020/12/14 07:27:50;;;;;;;2.63;1.25;;;;;;;11.04;57.98;100529.56;5065606;28;20027;-72
2020/12/14 07:30:18;;;;;;;3.83;1.10;;;;;;;10.66;59.29;100533.66;5080736;28;20090;-70
2020/12/14 07:32:46;;;;;;;8.00;1.65;;;;;;;10.08;61.18;100523.31;5065566;28;20780;-69
2020/12/14 07:35:11;;;;;;;4.28;1.38;;;;;;;10.79;59.01;100540.34;5080568;28;20087;-71
2020/12/14 07:37:37;;;;;;;9.10;1.58;;;;;;;10.59;60.05;100532.91;5067855;28;20147;-70
2020/12/14 07:40:07;;;;;;;3.50;1.67;;;;;;;10.53;60.49;100533.00;5053162;28;20067;-70
2020/12/14 07:42:36;;;;;;;7.03;2.08;;;;;;;10.46;60.83;100532.25;5053075;28;20055;-71
2020/12/14 07:45:08;;;;;;;3.88;1.65;;;;;;;10.70;59.93;100541.34;5067718;28;20374;-69
2020/12/14 07:47:34;;;;;;;5.55;1.23;;;;;;;10.65;60.37;100531.94;5069600;28;20028;-69
2020/12/14 07:50:12;;;;;;;2.35;1.83;;;;;;;10.51;60.77;100535.59;5068304;28;20543;-69
2020/12/14 07:52:39;;;;;;;5.47;2.03;;;;;;;10.56;60.67;100530.34;5065513;28;20058;-70
2020/12/14 07:55:07;;;;;;;2.53;1.60;;;;;;;10.56;60.55;100531.22;5052488;28;20040;-69
2020/12/14 07:57:36;;;;;;;5.40;1.60;;;;;;;10.52;61.00;100521.81;5053734;28;20040;-69
2020/12/14 08:00:13;;;;;;;6.13;1.38;;;;;;;10.56;61.09;100528.66;5084472;28;20028;-69
2020/12/14 08:02:41;;;;;;;6.57;2.47;;;;;;;10.42;61.50;100525.41;5072450;28;20680;-70
2020/12/14 08:05:18;;;;;;;4.22;1.63;;;;;;;10.51;61.13;100507.16;5064471;28;20089;-71
2020/12/14 08:07:53;;;;;;;4.38;1.92;;;;;;;10.70;60.62;100509.47;5069583;28;20055;-68
2020/12/14 08:10:29;;;;;;;5.47;1.58;;;;;;;9.95;63.05;100501.13;5069799;28;20090;-70
2020/12/14 08:12:56;;;;;;;6.15;1.67;;;;;;;10.42;61.90;100504.75;5064054;28;20044;-71
2020/12/14 08:15:22;;;;;;;4.05;1.17;;;;;;;10.50;61.90;100510.66;5069074;28;20559;-71
2020/12/14 08:17:49;;;;;;;2.78;1.38;;;;;;;10.47;61.99;100518.47;5070159;28;20116;-73
2020/12/14 08:20:29;;;;;;;6.75;2.28;;;;;;;10.78;61.16;100523.97;5072546;28;20253;-73
2020/12/14 08:22:56;;;;;;;8.85;2.17;;;;;;;10.86;60.66;100521.25;5052767;28;20028;-69
2020/12/14 08:25:31;;;;;;;6.53;1.88;;;;;;;10.62;61.44;100522.50;5085169;28;20489;-70
2020/12/14 08:27:59;;;;;;;4.20;1.77;;;;;;;10.76;61.20;100524.84;5087721;28;20123;-72
2020/12/14 08:30:26;;;;;;;3.78;1.67;;;;;;;11.01;60.81;100513.22;5068447;28;20044;-68
2020/12/14 08:33:12;;;;;;;3.78;2.28;;;;;;;10.63;61.82;100525.94;5072097;28;20028;-69
2020/12/14 08:35:39;;;;;;;4.65;2.03;;;;;;;10.91;61.23;100529.75;5068899;28;20035;-71
2020/12/14 08:38:07;;;;;;;3.78;2.63;;;;;;;10.94;61.09;100529.72;5055840;28;20304;-71
2020/12/14 08:40:33;;;;;;;5.55;2.03;;;;;;;10.93;61.05;100522.84;5051456;28;20047;-71
2020/12/14 08:43:13;;;;;;;3.35;1.40;;;;;;;10.47;62.65;100531.38;5083975;28;20034;-69
2020/12/14 08:46:05;;;;;;;3.10;1.55;;;;;;;10.76;61.62;100525.72;5051370;28;20072;-69
2020/12/14 08:48:39;;;;;;;4.05;2.03;;;;;;;10.94;61.28;100529.72;5065547;28;20058;-71
2020/12/14 08:51:21;;;;;;;7.82;2.20;;;;;;;11.11;60.81;100513.03;5081412;28;20127;-71
2020/12/14 08:53:50;;;;;;;4.15;1.75;;;;;;;10.96;61.28;100521.91;5083958;28;20090;-70
2020/12/14 08:56:24;;;;;;;4.10;2.08;;;;;;;11.03;61.02;100528.72;5066205;28;20123;-70
2020/12/14 08:58:54;;;;;;;6.45;2.53;;;;;;;11.16;60.66;100532.78;5085008;28;20036;-71
2020/12/14 09:01:22;;;;;;;3.58;2.40;;;;;;;10.66;62.20;100538.81;5083936;28;20047;-69
2020/12/14 09:03:55;;;;;;;6.63;2.33;;;;;;;11.08;61.25;100531.22;5054082;28;20035;-70
2020/12/14 09:06:35;;;;;;;4.10;2.00;;;;;;;11.15;61.10;100533.63;5062570;28;20047;-69
2020/12/14 09:09:00;;;;;;;6.22;2.63;;;;;;;10.71;62.77;100542.19;5066374;28;20051;-71
2020/12/14 09:11:30;;;;;;;5.95;2.33;;;;;;;11.11;61.70;100536.31;5065615;28;20044;-71
2020/12/14 09:13:58;;;;;;;9.52;2.78;;;;;;;11.01;62.04;100536.47;5064535;28;20082;-70
2020/12/14 09:16:24;;;;;;;5.15;2.47;;;;;;;10.98;62.11;100526.22;5068555;28;20052;-69
2020/12/14 09:18:50;;;;;;;4.13;2.85;;;;;;;11.53;60.48;100520.84;5066289;28;20420;-70
2020/12/14 09:21:15;;;;;;;8.70;2.75;;;;;;;11.52;60.67;100521.72;5051745;28;20042;-71
2020/12/14 09:23:41;;;;;;;9.13;2.83;;;;;;;11.47;60.80;100528.72;5051825;28;20040;-72
2020/12/14 09:26:07;;;;;;;8.10;2.80;;;;;;;11.52;60.93;100537.22;5068077;28;20043;-70
2020/12/14 09:28:36;;;;;;;7.45;2.60;;;;;;;11.14;62.01;100538.81;5068843;28;20044;-68
2020/12/14 09:31:03;;;;;;;3.90;2.08;;;;;;;11.79;60.07;100536.69;5051283;28;20036;-72
2020/12/14 09:33:29;;;;;;;8.75;2.80;;;;;;;11.51;61.18;100527.78;5071173;28;20501;-72
2020/12/14 09:35:55;;;;;;;9.98;4.78;;;;;;;11.77;60.39;100533.28;5073488;28;20037;-73
2020/12/14 09:38:20;;;;;;;4.53;3.10;;;;;;;11.52;61.33;100532.06;5088936;28;20036;-72
2020/12/14 09:40:55;;;;;;;4.82;2.60;;;;;;;11.41;62.08;100525.38;5072813;28;20020;-70
2020/12/14 09:43:20;;;;;;;6.72;2.42;;;;;;;11.73;61.09;100526.44;5068814;28;20360;-71
2020/12/14 09:45:52;;;;;;;5.82;2.67;;;;;;;11.78;60.88;100526.34;5068481;28;20040;-70
2020/12/14 09:48:18;;;;;;;5.53;2.75;;;;;;;11.94;60.57;100529.50;5066493;28;20028;-73
2020/12/14 09:50:44;;;;;;;3.08;2.15;;;;;;;12.04;60.41;100531.00;5070673;28;20059;-71
2020/12/14 09:53:10;;;;;;;5.68;2.40;;;;;;;11.74;61.16;100533.31;5072999;28;20032;-71
2020/12/14 09:55:36;;;;;;;4.07;2.47;;;;;;;11.72;61.06;100534.25;5070343;28;20489;-70
2020/12/14 09:58:01;;;;;;;3.15;2.20;;;;;;;11.71;61.28;100541.16;5069528;28;20048;-70
2020/12/14 10:00:27;;;;;;;3.92;2.13;;;;;;;11.67;61.38;100543.84;5066295;28;20028;-73
2020/12/14 10:02:52;;;;;;;6.05;2.35;;;;;;;11.61;61.82;100531.91;5087059;28;20035;-71
2020/12/14 10:05:18;;;;;;;3.47;2.55;;;;;;;11.40;62.29;100530.56;5069710;28;20032;-72
2020/12/14 10:07:43;;;;;;;4.10;2.38;;;;;;;11.72;61.21;100523.88;5052919;28;20119;-71
2020/12/14 10:10:09;;;;;;;3.95;2.67;;;;;;;11.24;62.96;100532.63;5069332;28;20107;-75
2020/12/14 10:12:35;;;;;;;3.40;1.88;;;;;;;11.52;62.07;100524.28;5070854;28;20128;-71
2020/12/14 10:15:01;;;;;;;6.45;2.03;;;;;;;12.15;60.51;100541.97;5070070;28;20239;-70
2020/12/14 10:17:27;;;;;;;2.70;1.88;;;;;;;11.59;62.02;100536.25;5070319;28;20025;-72
2020/12/14 10:19:54;;;;;;;2.92;1.95;;;;;;;12.28;59.68;100533.91;5070989;28;20036;-70
2020/12/14 10:22:20;;;;;;;8.88;2.15;;;;;;;12.24;60.27;100535.72;5073087;28;20063;-73
2020/12/14 10:24:46;;;;;;;4.53;2.22;;;;;;;12.35;59.68;100527.72;5068594;28;20032;-72
2020/12/14 10:27:12;;;;;;;3.10;2.22;;;;;;;11.17;63.78;100538.78;5067468;28;20676;-72
2020/12/14 10:29:38;;;;;;;4.68;3.00;;;;;;;11.71;62.34;100528.22;5064790;28;20036;-72
2020/12/14 10:32:04;;;;;;;7.53;4.22;;;;;;;11.39;63.28;100531.47;5066993;28;20039;-72
2020/12/14 10:34:30;;;;;;;4.15;2.53;;;;;;;11.92;62.19;100532.13;5084637;28;20580;-72
2020/12/14 10:36:56;;;;;;;5.05;2.20;;;;;;;12.37;60.81;100531.09;5065614;28;20025;-72
2020/12/14 10:39:21;;;;;;;6.90;2.30;;;;;;;12.38;60.62;100530.22;5068471;28;20036;-71
2020/12/14 10:41:47;;;;;;;6.90;3.17;;;;;;;12.16;61.36;100535.88;5069830;28;20036;-72
2020/12/14 10:44:12;;;;;;;3.10;2.53;;;;;;;11.87;62.84;100527.91;5067423;28;20047;-72
2020/12/14 10:46:38;;;;;;;10.18;2.40;;;;;;;12.42;61.09;100539.63;5068291;28;20036;-71
2020/12/14 10:49:03;;;;;;;6.03;2.78;;;;;;;12.45;60.87;100536.94;5066144;28;20054;-70
2020/12/14 10:51:29;;;;;;;5.50;2.20;;;;;;;11.83;62.89;100538.31;5066323;28;20032;-71
2020/12/14 10:53:54;;;;;;;5.38;2.28;;;;;;;12.19;62.03;100534.97;5065273;28;20121;-69
2020/12/14 10:56:20;;;;;;;10.07;2.80;;;;;;;11.71;63.72;100543.75;5064502;28;20108;-72
2020/12/14 10:58:45;;;;;;;8.00;3.22;;;;;;;12.19;62.39;100541.03;5066443;28;20036;-71
2020/12/14 11:01:12;;;;;;;7.38;3.63;;;;;;;12.37;61.65;100539.75;5062852;28;20037;-72
2020/12/14 11:03:37;;;;;;;5.22;3.35;;;;;;;11.28;64.52;100536.00;5068911;28;20489;-72
2020/12/14 11:06:03;;;;;;;6.72;3.95;;;;;;;12.31;62.03;100532.09;5066305;28;20111;-72
2020/12/14 11:08:28;;;;;;;9.15;4.28;;;;;;;12.78;60.75;100529.25;5065762;28;20816;-72
2020/12/14 11:10:54;;;;;;;10.65;3.97;;;;;;;12.71;60.76;100528.53;5066347;28;20035;-72
2020/12/14 11:13:19;;;;;;;7.03;4.15;;;;;;;12.43;61.83;100534.38;5065761;28;20068;-71
2020/12/14 11:15:45;;;;;;;7.55;3.28;;;;;;;12.84;60.47;100529.09;5083810;28;20062;-72
2020/12/14 11:18:10;;;;;;;5.53;3.30;;;;;;;12.41;62.06;100540.50;5065255;28;20091;-72
2020/12/14 11:20:36;;;;;;;8.15;3.83;;;;;;;12.44;62.21;100540.44;5062711;28;20037;-71
2020/12/14 11:23:02;;;;;;;10.02;3.58;;;;;;;12.20;62.95;100540.13;5065394;28;20123;-71
2020/12/14 11:25:28;;;;;;;5.63;3.83;;;;;;;12.77;61.24;100537.88;5063856;28;20056;-73
2020/12/14 11:27:53;;;;;;;11.32;4.65;;;;;;;12.72;61.71;100539.75;5067721;28;20020;-73